Time;durP1;ratioP1;P1;durP2;ratioP2;P2;SDS_P1;SDS_P2;PMS_P1;PMS_P2;Temp;Humidity;BMP_temperature;BMP_pressure;BME280_temperature;BME280_humidity;BME280_pressure;Samples;Min_cycle;Max_cycle;Signal;HPM_P1;HPM_P2
2022/05/10 00:01:32;;;;;;;;;;;;;;;;;;8317632;28;27421;-65
2022/05/10 00:05:32;;;;;;;;;;;;;;;;;;8330271;28;28729;-65
2022/05/10 00:09:32;;;;;;;;;;;;;;;;;;8322874;28;28050;-65
2022/05/10 00:13:32;;;;;;;;;;;;;;;;;;8335234;28;29175;-66
2022/05/10 00:17:32;;;;;;;;;;;;;;;;;;8324662;28;27376;-66
2022/05/10 00:21:33;;;;;;;;;;;;;;;;;;8329499;28;27554;-66
2022/05/10 00:25:33;;;;;;;;;;;;;;;;;;8325706;28;27754;-66
2022/05/10 00:29:33;;;;;;;;;;;;;;;;;;8318943;28;28808;-65
2022/05/10 00:33:33;;;;;;;;;;;;;;;;;;8323150;28;29227;-65
2022/05/10 00:37:33;;;;;;;;;;;;;;;;;;8326415;28;27720;-65
2022/05/10 00:41:33;;;;;;;;;;;;;;;;;;8320837;28;28490;-65
2022/05/10 00:45:33;;;;;;;;;;;;;;;;;;8328090;28;27324;-65
2022/05/10 00:49:33;;;;;;;;;;;;;;;;;;8324567;28;27637;-65
2022/05/10 00:53:34;;;;;;;;;;;;;;;;;;8332130;28;29196;-65
2022/05/10 00:57:34;;;;;;;;;;;;;;;;;;8329561;28;27323;-65
2022/05/10 01:01:34;;;;;;;;;;;;;;;;;;8327639;28;27645;-65
2022/05/10 01:05:34;;;;;;;;;;;;;;;;;;8325844;28;27354;-65
2022/05/10 01:09:34;;;;;;;;;;;;;;;;;;8325374;28;28085;-65
2022/05/10 01:13:34;;;;;;;;;;;;;;;;;;8325137;28;27459;-65
2022/05/10 01:17:35;;;;;;;;;;;;;;;;;;8338212;28;29527;-65
2022/05/10 01:21:35;;;;;;;;;;;;;;;;;;8328158;28;27713;-65
2022/05/10 01:25:35;;;;;;;;;;;;;;;;;;8338207;28;29682;-65
2022/05/10 01:29:35;;;;;;;;;;;;;;;;;;8330233;28;27358;-64
2022/05/10 01:33:36;;;;;;;;;;;;;;;;;;8334287;28;27770;-65
2022/05/10 01:37:36;;;;;;;;;;;;;;;;;;8335716;28;27745;-64
2022/05/10 01:41:36;;;;;;;;;;;;;;;;;;8330328;28;27356;-65
2022/05/10 01:45:36;;;;;;;;;;;;;;;;;;8333848;28;28220;-65
2022/05/10 01:49:36;;;;;;;;;;;;;;;;;;8328173;28;27725;-65
2022/05/10 01:53:36;;;;;;;;;;;;;;;;;;8331065;28;28138;-65
2022/05/10 01:57:38;;;;;;;;;;;;;;;;;;8333102;28;27762;-65
2022/05/10 02:01:38;;;;;;;;;;;;;;;;;;8330153;28;28177;-65
2022/05/10 02:05:38;;;;;;;;;;;;;;;;;;8330624;28;28319;-65
2022/05/10 02:09:38;;;;;;;;;;;;;;;;;;8327126;28;28231;-65
2022/05/10 02:13:38;;;;;;;;;;;;;;;;;;8331129;28;27204;-65
2022/05/10 02:17:38;;;;;;;;;;;;;;;;;;8330937;28;28206;-65
2022/05/10 02:21:39;;;;;;;;;;;;;;;;;;8330536;28;27726;-65
2022/05/10 02:25:39;;;;;;;;;;;;;;;;;;8337076;28;27867;-65
2022/05/10 02:29:39;;;;;;;;;;;;;;;;;;8327637;28;27835;-65
2022/05/10 02:33:39;;;;;;;;;;;;;;;;;;8331613;28;27685;-65
2022/05/10 02:37:40;;;;;;;;;;;;;;;;;;8332873;28;27524;-65
2022/05/10 02:41:40;;;;;;;;;;;;;;;;;;8330568;28;27460;-65
2022/05/10 02:45:40;;;;;;;;;;;;;;;;;;8332863;28;27266;-64
2022/05/10 02:49:40;;;;;;;;;;;;;;;;;;8329072;28;27412;-65
2022/05/10 02:53:40;;;;;;;;;;;;;;;;;;8336107;28;28325;-65
2022/05/10 02:57:41;;;;;;;;;;;;;;;;;;8328917;28;28025;-65
2022/05/10 03:01:41;;;;;;;;;;;;;;;;;;8328954;28;27283;-65
2022/05/10 03:05:41;;;;;;;;;;;;;;;;;;8337088;28;28497;-64
2022/05/10 03:09:41;;;;;;;;;;;;;;;;;;8329175;28;27374;-65
2022/05/10 03:13:41;;;;;;;;;;;;;;;;;;8330347;28;28891;-65
2022/05/10 03:17:41;;;;;;;;;;;;;;;;;;8330169;28;27622;-65
2022/05/10 03:21:41;;;;;;;;;;;;;;;;;;8327694;28;27493;-65
2022/05/10 03:25:41;;;;;;;;;;;;;;;;;;8331752;28;27948;-65
2022/05/10 03:29:42;;;;;;;;;;;;;;;;;;8331487;28;27507;-65
2022/05/10 03:33:42;;;;;;;;;;;;;;;;;;8328730;28;27441;-65
2022/05/10 03:37:42;;;;;;;;;;;;;;;;;;8331848;28;28668;-65
2022/05/10 03:41:43;;;;;;;;;;;;;;;;;;8327903;28;27431;-65
2022/05/10 03:45:44;;;;;;;;;;;;;;;;;;8332093;28;27671;-65
2022/05/10 03:49:45;;;;;;;;;;;;;;;;;;8329325;28;27888;-65
2022/05/10 03:53:45;;;;;;;;;;;;;;;;;;8331834;28;28043;-65
2022/05/10 03:57:45;;;;;;;;;;;;;;;;;;8327575;28;27681;-65
2022/05/10 04:01:46;;;;;;;;;;;;;;;;;;8329611;28;27266;-65
2022/05/10 04:05:46;;;;;;;;;;;;;;;;;;8331254;28;28123;-65
2022/05/10 04:09:46;;;;;;;;;;;;;;;;;;8323622;28;27348;-65
2022/05/10 04:13:46;;;;;;;;;;;;;;;;;;8328742;28;27264;-64
2022/05/10 04:17:46;;;;;;;;;;;;;;;;;;8329151;28;27538;-65
2022/05/10 04:21:48;;;;;;;;;;;;;;;;;;8325531;28;29002;-65
2022/05/10 04:25:48;;;;;;;;;;;;;;;;;;8332199;28;28112;-65
2022/05/10 04:29:48;;;;;;;;;;;;;;;;;;8325380;28;28246;-65
2022/05/10 04:33:48;;;;;;;;;;;;;;;;;;8327197;28;27652;-65
2022/05/10 04:37:48;;;;;;;;;;;;;;;;;;8328392;28;27829;-65
2022/05/10 04:41:48;;;;;;;;;;;;;;;;;;8326214;28;28495;-64
2022/05/10 04:45:48;;;;;;;;;;;;;;;;;;8331144;28;27404;-65
2022/05/10 04:49:48;;;;;;;;;;;;;;;;;;8329289;28;27306;-65
2022/05/10 04:53:48;;;;;;;;;;;;;;;;;;8332158;28;28649;-65
2022/05/10 04:57:49;;;;;;;;;;;;;;;;;;8334173;28;27585;-65
2022/05/10 05:01:50;;;;;;;;;;;;;;;;;;8330717;28;27557;-65
2022/05/10 05:05:50;;;;;;;;;;;;;;;;;;8330436;28;27674;-64
2022/05/10 05:09:50;;;;;;;;;;;;;;;;;;8329240;28;27277;-65
2022/05/10 05:13:50;;;;;;;;;;;;;;;;;;8331454;28;27249;-65
2022/05/10 05:17:51;;;;;;;;;;;;;;;;;;8334147;28;27317;-65
2022/05/10 05:21:51;;;;;;;;;;;;;;;;;;8328886;28;27781;-65
2022/05/10 05:25:53;;;;;;;;;;;;;;;;;;8338311;28;27657;-65
2022/05/10 05:29:53;;;;;;;;;;;;;;;;;;8331457;28;28201;-65
2022/05/10 05:33:54;;;;;;;;;;;;;;;;;;8332661;28;28081;-65
2022/05/10 05:37:54;;;;;;;;;;;;;;;;;;8330989;28;28170;-65
2022/05/10 05:41:54;;;;;;;;;;;;;;;;;;8330425;28;27504;-65
2022/05/10 05:45:54;;;;;;;;;;;;;;;;;;8332458;28;27266;-65
2022/05/10 05:49:54;;;;;;;;;;;;;;;;;;8329875;28;27499;-65
2022/05/10 05:53:55;;;;;;;;;;;;;;;;;;8333569;28;27953;-65
2022/05/10 05:57:55;;;;;;;;;;;;;;;;;;8338284;28;28725;-64
2022/05/10 06:01:55;;;;;;;;;;;;;;;;;;8328741;28;27781;-64
2022/05/10 06:05:55;;;;;;;;;;;;;;;;;;8334640;28;27875;-64
2022/05/10 06:09:55;;;;;;;;;;;;;;;;;;8331581;28;27845;-64
2022/05/10 06:13:55;;;;;;;;;;;;;;;;;;8333658;28;27625;-64
2022/05/10 06:17:56;;;;;;;;;;;;;;;;;;8329424;28;28191;-64
2022/05/10 06:21:56;;;;;;;;;;;;;;;;;;8327508;28;27575;-64
2022/05/10 06:25:56;;;;;;;;;;;;;;;;;;8326271;28;27437;-64
2022/05/10 06:29:56;;;;;;;;;;;;;;;;;;8339777;28;29417;-64
2022/05/10 06:33:56;;;;;;;;;;;;;;;;;;8323302;28;28246;-65
2022/05/10 06:42:15;;;;;;;;;;;;;;;;;;8325444;28;28212;-64
2022/05/10 06:46:15;;;;;;;;;;;;;;;;;;8330313;28;27892;-65
2022/05/10 06:50:15;;;;;;;;;;;;;;;;;;8328779;28;28278;-64
2022/05/10 06:54:16;;;;;;;;;;;;;;;;;;8325865;28;27223;-64
2022/05/10 06:58:16;;;;;;;;;;;;;;;;;;8327804;28;27318;-64
2022/05/10 07:02:16;;;;;;;;;;;;;;;;;;8333178;28;29273;-64
2022/05/10 07:06:16;;;;;;;;;;;;;;;;;;8331855;28;27416;-64
2022/05/10 07:10:16;;;;;;;;;;;;;;;;;;8330349;28;27959;-64
2022/05/10 07:14:16;;;;;;;;;;;;;;;;;;8330468;28;27920;-65
2022/05/10 07:18:16;;;;;;;;;;;;;;;;;;8332857;28;27691;-65
2022/05/10 07:22:16;;;;;;;;;;;;;;;;;;8328581;28;28710;-64
2022/05/10 07:26:16;;;;;;;;;;;;;;;;;;8335282;28;27417;-65
2022/05/10 07:30:17;;;;;;;;;;;;;;;;;;8328772;28;27581;-65
2022/05/10 07:34:17;;;;;;;;;;;;;;;;;;8330444;28;28337;-64
2022/05/10 07:38:17;;;;;;;;;;;;;;;;;;8335223;28;27527;-65
2022/05/10 07:42:17;;;;;;;;;;;;;;;;;;8326332;28;27953;-65
2022/05/10 07:46:17;;;;;;;;;;;;;;;;;;8330659;28;27529;-65
2022/05/10 07:50:17;;;;;;;;;;;;;;;;;;8329744;28;27757;-64
2022/05/10 07:54:17;;;;;;;;;;;;;;;;;;8332544;28;28354;-64
2022/05/10 07:58:17;;;;;;;;;;;;;;;;;;8327047;28;28793;-64
2022/05/10 08:02:18;;;;;;;;;;;;;;;;;;8326882;28;27724;-65
2022/05/10 08:06:18;;;;;;;;;;;;;;;;;;8327277;28;27570;-65
2022/05/10 08:10:18;;;;;;;;;;;;;;;;;;8323515;28;28557;-65
2022/05/10 08:14:18;;;;;;;;;;;;;;;;;;8325270;28;28178;-64
2022/05/10 08:18:18;;;;;;;;;;;;;;;;;;8329304;28;27777;-64
2022/05/10 08:22:18;;;;;;;;;;;;;;;;;;8327205;28;27719;-64
2022/05/10 08:26:20;;;;;;;;;;;;;;;;;;8328764;28;28277;-64
2022/05/10 08:30:20;;;;;;;;;;;;;;;;;;8326409;28;28057;-64
2022/05/10 08:34:20;;;;;;;;;;;;;;;;;;8330093;28;27733;-64
2022/05/10 08:38:20;;;;;;;;;;;;;;;;;;8329109;28;28691;-65
2022/05/10 08:42:20;;;;;;;;;;;;;;;;;;8324794;28;28551;-65
2022/05/10 08:46:20;;;;;;;;;;;;;;;;;;8327693;28;27830;-65
2022/05/10 08:50:21;;;;;;;;;;;;;;;;;;8323695;28;27560;-65
2022/05/10 08:54:21;;;;;;;;;;;;;;;;;;8327748;28;28007;-65
2022/05/10 08:58:21;;;;;;;;;;;;;;;;;;8322308;28;28074;-65
2022/05/10 09:02:21;;;;;;;;;;;;;;;;;;8317035;28;27774;-65
2022/05/10 09:06:21;;;;;;;;;;;;;;;;;;8328112;28;27802;-65
2022/05/10 09:10:22;;;;;;;;;;;;;;;;;;8325155;28;28031;-65
2022/05/10 09:14:22;;;;;;;;;;;;;;;;;;8325629;28;28541;-65
2022/05/10 09:18:22;;;;;;;;;;;;;;;;;;8327736;28;28381;-65
2022/05/10 09:22:22;;;;;;;;;;;;;;;;;;8324891;28;27246;-66
2022/05/10 09:26:24;;;;;;;;;;;;;;;;;;8323390;28;27675;-65
2022/05/10 09:30:24;;;;;;;;;;;;;;;;;;8320050;28;27723;-65
2022/05/10 09:38:43;;;;;;;;;;;;;;;;;;8329043;28;27207;-65
2022/05/10 09:42:43;;;;;;;;;;;;;;;;;;8327586;28;29011;-65
2022/05/10 09:46:44;;;;;;;;;;;;;;;;;;8327228;28;28531;-66
2022/05/10 09:50:44;;;;;;;;;;;;;;;;;;8323241;28;28207;-65
2022/05/10 09:54:44;;;;;;;;;;;;;;;;;;8345849;28;29034;-65
2022/05/10 09:58:44;;;;;;;;;;;;;;;;;;8332570;28;27722;-65
2022/05/10 10:02:45;;;;;;;;;;;;;;;;;;8324217;28;27612;-65
2022/05/10 10:06:45;;;;;;;;;;;;;;;;;;8329392;28;28107;-65
2022/05/10 10:10:45;;;;;;;;;;;;;;;;;;8325008;28;28317;-65
2022/05/10 10:14:45;;;;;;;;;;;;;;;;;;8329694;28;27514;-65
2022/05/10 10:18:45;;;;;;;;;;;;;;;;;;8333714;28;28079;-65
2022/05/10 10:22:46;;;;;;;;;;;;;;;;;;8328126;28;27946;-65
2022/05/10 10:26:46;;;;;;;;;;;;;;;;;;8332574;28;28137;-65
2022/05/10 10:30:46;;;;;;;;;;;;;;;;;;8329855;28;27540;-65
2022/05/10 10:34:47;;;;;;;;;;;;;;;;;;8327287;28;27702;-65
2022/05/10 10:38:47;;;;;;;;;;;;;;;;;;8332513;28;27451;-65
2022/05/10 10:42:49;;;;;;;;;;;;;;;;;;8327399;28;27707;-65
2022/05/10 10:46:49;;;;;;;;;;;;;;;;;;8328898;28;27416;-65
2022/05/10 10:50:49;;;;;;;;;;;;;;;;;;8329323;28;28110;-65
2022/05/10 10:54:49;;;;;;;;;;;;;;;;;;8329138;28;28178;-65
2022/05/10 10:58:49;;;;;;;;;;;;;;;;;;8330270;28;27783;-65
2022/05/10 11:02:49;;;;;;;;;;;;;;;;;;8324630;28;27889;-65
2022/05/10 11:06:49;;;;;;;;;;;;;;;;;;8330202;28;27744;-65
2022/05/10 11:10:50;;;;;;;;;;;;;;;;;;8333393;28;27430;-65
2022/05/10 11:14:50;;;;;;;;;;;;;;;;;;8331151;28;27971;-65
2022/05/10 11:18:50;;;;;;;;;;;;;;;;;;8326615;28;27663;-65
2022/05/10 11:22:51;;;;;;;;;;;;;;;;;;8331472;28;28102;-65
2022/05/10 11:26:51;;;;;;;;;;;;;;;;;;8334383;28;27920;-65
2022/05/10 11:30:51;;;;;;;;;;;;;;;;;;8331290;28;27550;-65
2022/05/10 11:34:51;;;;;;;;;;;;;;;;;;8325899;28;27520;-66
2022/05/10 11:38:51;;;;;;;;;;;;;;;;;;8331961;28;27282;-65
2022/05/10 11:42:51;;;;;;;;;;;;;;;;;;8327757;28;27438;-65
2022/05/10 11:46:51;;;;;;;;;;;;;;;;;;8331293;28;27942;-65
2022/05/10 11:55:11;;;;;;;;;;;;;;;;;;8327736;28;27774;-65
2022/05/10 11:59:12;;;;;;;;;;;;;;;;;;8328110;28;27837;-65
2022/05/10 12:03:12;;;;;;;;;;;;;;;;;;8325480;28;29133;-65
2022/05/10 12:07:12;;;;;;;;;;;;;;;;;;8326327;28;28656;-65
2022/05/10 12:11:12;;;;;;;;;;;;;;;;;;8323541;28;27399;-65
2022/05/10 12:23:50;;;;;;;;;;;;;;;;;;8330060;28;27490;-65
2022/05/10 12:27:50;;;;;;;;;;;;;;;;;;8323722;28;27827;-65
2022/05/10 12:31:51;;;;;;;;;;;;;;;;;;8316525;28;27704;-65
2022/05/10 12:35:51;;;;;;;;;;;;;;;;;;8325753;28;28799;-65
2022/05/10 12:39:51;;;;;;;;;;;;;;;;;;8320932;28;27701;-65
2022/05/10 12:43:51;;;;;;;;;;;;;;;;;;8326248;28;28381;-65
2022/05/10 12:47:52;;;;;;;;;;;;;;;;;;8324196;28;28281;-66
2022/05/10 12:51:52;;;;;;;;;;;;;;;;;;8326809;28;27945;-65
2022/05/10 12:55:52;;;;;;;;;;;;;;;;;;8328696;28;27397;-65
2022/05/10 12:59:52;;;;;;;;;;;;;;;;;;8322542;28;28628;-66
2022/05/10 13:03:52;;;;;;;;;;;;;;;;;;8324606;28;27591;-65
2022/05/10 13:07:53;;;;;;;;;;;;;;;;;;8335882;28;29510;-66
2022/05/10 13:11:53;;;;;;;;;;;;;;;;;;8325648;28;28006;-66
2022/05/10 13:15:54;;;;;;;;;;;;;;;;;;8326755;28;28397;-66
2022/05/10 13:19:55;;;;;;;;;;;;;;;;;;8327376;28;27904;-66
2022/05/10 13:23:55;;;;;;;;;;;;;;;;;;8327931;28;27579;-65
2022/05/10 13:27:55;;;;;;;;;;;;;;;;;;8328117;28;28606;-66
2022/05/10 13:31:55;;;;;;;;;;;;;;;;;;8330806;28;27579;-66
2022/05/10 13:35:55;;;;;;;;;;;;;;;;;;8331502;28;28033;-65
2022/05/10 13:39:56;;;;;;;;;;;;;;;;;;8329696;28;28027;-66
2022/05/10 13:43:56;;;;;;;;;;;;;;;;;;8333813;28;27582;-66
2022/05/10 13:47:56;;;;;;;;;;;;;;;;;;8331611;28;27539;-66
2022/05/10 13:51:57;;;;;;;;;;;;;;;;;;8327998;28;27436;-66
2022/05/10 13:55:57;;;;;;;;;;;;;;;;;;8330462;28;27617;-66
2022/05/10 13:59:57;;;;;;;;;;;;;;;;;;8329418;28;29478;-66
2022/05/10 14:03:57;;;;;;;;;;;;;;;;;;8336212;28;27625;-66
2022/05/10 14:07:57;;;;;;;;;;;;;;;;;;8330793;28;27597;-66
2022/05/10 14:11:57;;;;;;;;;;;;;;;;;;8334102;28;28417;-66
2022/05/10 14:15:59;;;;;;;;;;;;;;;;;;8332004;28;29798;-66
2022/05/10 14:19:59;;;;;;;;;;;;;;;;;;8331441;28;28199;-66
2022/05/10 14:23:59;;;;;;;;;;;;;;;;;;8335045;28;28402;-66
2022/05/10 14:28:11;;;;;;;;;;;;;;;;;;8333887;28;27542;-66
2022/05/10 14:32:12;;;;;;;;;;;;;;;;;;8330353;28;27385;-65
2022/05/10 14:36:12;;;;;;;;;;;;;;;;;;8330998;28;28254;-66
2022/05/10 14:40:12;;;;;;;;;;;;;;;;;;8337508;28;28496;-66
2022/05/10 14:44:12;;;;;;;;;;;;;;;;;;8333738;28;27708;-66
2022/05/10 14:48:12;;;;;;;;;;;;;;;;;;8333687;28;29576;-66
2022/05/10 14:52:13;;;;;;;;;;;;;;;;;;8337783;28;27953;-66
2022/05/10 14:56:13;;;;;;;;;;;;;;;;;;8332241;28;27290;-66
2022/05/10 15:00:29;;;;;;;;;;;;;;;;;;8339844;28;29219;-66
2022/05/10 15:04:29;;;;;;;;;;;;;;;;;;8335901;28;27790;-66
2022/05/10 15:08:29;;;;;;;;;;;;;;;;;;8340209;28;28066;-66
2022/05/10 15:16:48;;;;;;;;;;;;;;;;;;8325808;28;27330;-67
2022/05/10 15:20:49;;;;;;;;;;;;;;;;;;8326380;28;27322;-67
2022/05/10 15:24:49;;;;;;;;;;;;;;;;;;8326902;28;27539;-66
2022/05/10 15:28:51;;;;;;;;;;;;;;;;;;8328726;28;27463;-65
2022/05/10 15:32:51;;;;;;;;;;;;;;;;;;8325744;28;27653;-65
2022/05/10 15:36:51;;;;;;;;;;;;;;;;;;8328436;28;28174;-64
2022/05/10 15:40:53;;;;;;;;;;;;;;;;;;8326445;28;27867;-64
2022/05/10 15:44:53;;;;;;;;;;;;;;;;;;8329266;28;27460;-64
2022/05/10 15:48:53;;;;;;;;;;;;;;;;;;8330384;28;28130;-64
2022/05/10 15:52:53;;;;;;;;;;;;;;;;;;8330848;28;27679;-67
2022/05/10 15:56:53;;;;;;;;;;;;;;;;;;8332049;28;27698;-67
2022/05/10 16:00:54;;;;;;;;;;;;;;;;;;8330041;28;28130;-65
2022/05/10 16:04:54;;;;;;;;;;;;;;;;;;8331251;28;29053;-65
2022/05/10 16:08:54;;;;;;;;;;;;;;;;;;8329471;28;27929;-65
2022/05/10 16:12:54;;;;;;;;;;;;;;;;;;8328583;28;27439;-65
2022/05/10 16:16:56;;;;;;;;;;;;;;;;;;8330659;28;48999;-65
2022/05/10 16:20:56;;;;;;;;;;;;;;;;;;8330136;28;27494;-65
2022/05/10 16:33:33;;;;;;;;;;;;;;;;;;8395464;28;27906;-65
2022/05/10 16:37:35;;;;;;;;;;;;;;;;;;8400390;27;27724;-65
2022/05/10 16:41:36;;;;;;;;;;;;;;;;;;8396374;27;28132;-65
2022/05/10 16:45:36;;;;;;;;;;;;;;;;;;8400400;27;27393;-65
2022/05/10 16:49:36;;;;;;;;;;;;;;;;;;8395451;28;27986;-65
2022/05/10 16:53:37;;;;;;;;;;;;;;;;;;8396716;27;27908;-65
2022/05/10 16:57:37;;;;;;;;;;;;;;;;;;8400547;28;28654;-65
2022/05/10 17:01:38;;;;;;;;;;;;;;;;;;8398529;27;27804;-65
2022/05/10 17:05:38;;;;;;;;;;;;;;;;;;8398296;27;28825;-66
2022/05/10 17:09:38;;;;;;;;;;;;;;;;;;8396226;27;27945;-66
2022/05/10 17:13:38;;;;;;;;;;;;;;;;;;8399218;28;28841;-66
2022/05/10 17:17:38;;;;;;;;;;;;;;;;;;8398628;27;28159;-66
2022/05/10 17:21:38;;;;;;;;;;;;;;;;;;8398071;28;27823;-66
2022/05/10 17:25:42;;;;;;;;;;;;;;;;;;8399688;27;27405;-66
2022/05/10 17:29:42;;;;;;;;;;;;;;;;;;8394255;28;27832;-66
2022/05/10 17:33:42;;;;;;;;;;;;;;;;;;8393569;28;27277;-66
2022/05/10 17:37:42;;;;;;;;;;;;;;;;;;8401269;28;27492;-65
2022/05/10 17:41:42;;;;;;;;;;;;;;;;;;8395538;27;28101;-66
2022/05/10 17:45:42;;;;;;;;;;;;;;;;;;8393415;27;28457;-65
2022/05/10 17:49:42;;;;;;;;;;;;;;;;;;8396590;27;27829;-65
2022/05/10 17:53:43;;;;;;;;;;;;;;;;;;8400902;27;28813;-66
2022/05/10 17:57:43;;;;;;;;;;;;;;;;;;8400717;27;28012;-66
2022/05/10 18:01:43;;;;;;;;;;;;;;;;;;8398981;28;27833;-66
2022/05/10 18:05:43;;;;;;;;;;;;;;;;;;8404047;28;27680;-66
2022/05/10 18:09:43;;;;;;;;;;;;;;;;;;8398443;27;28240;-66
2022/05/10 18:13:43;;;;;;;;;;;;;;;;;;8399047;27;29289;-66
2022/05/10 18:17:43;;;;;;;;;;;;;;;;;;8397436;27;28285;-66
2022/05/10 18:21:44;;;;;;;;;;;;;;;;;;8397410;28;28302;-66
2022/05/10 18:25:44;;;;;;;;;;;;;;;;;;8401384;28;28039;-66
2022/05/10 18:29:44;;;;;;;;;;;;;;;;;;8386051;28;27730;-66
2022/05/10 18:33:45;;;;;;;;;;;;;;;;;;8403491;28;29220;-66
2022/05/10 18:37:45;;;;;;;;;;;;;;;;;;8403986;28;29073;-65
2022/05/10 18:41:45;;;;;;;;;;;;;;;;;;8401483;28;28284;-65
2022/05/10 18:45:46;;;;;;;;;;;;;;;;;;8401105;27;27388;-66
2022/05/10 18:49:46;;;;;;;;;;;;;;;;;;8397839;27;27887;-65
2022/05/10 18:53:46;;;;;;;;;;;;;;;;;;8393791;28;28060;-66
2022/05/10 18:57:46;;;;;;;;;;;;;;;;;;8404676;28;27555;-66
2022/05/10 19:01:46;;;;;;;;;;;;;;;;;;8402692;28;27514;-66
2022/05/10 19:05:46;;;;;;;;;;;;;;;;;;8400165;28;27528;-65
2022/05/10 19:09:46;;;;;;;;;;;;;;;;;;8397158;27;27942;-66
2022/05/10 19:13:46;;;;;;;;;;;;;;;;;;8398728;27;28162;-65
2022/05/10 19:17:46;;;;;;;;;;;;;;;;;;8399213;28;28455;-65
2022/05/10 19:21:47;;;;;;;;;;;;;;;;;;8388349;28;27775;-66
2022/05/10 19:25:47;;;;;;;;;;;;;;;;;;8393097;27;28101;-66
2022/05/10 19:29:47;;;;;;;;;;;;;;;;;;8398404;27;29959;-66
2022/05/10 19:33:47;;;;;;;;;;;;;;;;;;8393660;27;28328;-66
2022/05/10 19:37:47;;;;;;;;;;;;;;;;;;8402855;27;28699;-66
2022/05/10 19:41:47;;;;;;;;;;;;;;;;;;8393389;27;28198;-65
2022/05/10 19:45:47;;;;;;;;;;;;;;;;;;8396737;27;27417;-66
2022/05/10 19:49:48;;;;;;;;;;;;;;;;;;8396545;28;27954;-66
2022/05/10 19:53:49;;;;;;;;;;;;;;;;;;8395988;27;27822;-66
2022/05/10 19:57:49;;;;;;;;;;;;;;;;;;8394936;28;27388;-65
2022/05/10 20:06:08;;;;;;;;;;;;;;;;;;8393294;28;28081;-65
2022/05/10 20:10:08;;;;;;;;;;;;;;;;;;8398939;27;28898;-66
2022/05/10 20:14:10;;;;;;;;;;;;;;;;;;8402571;27;27710;-66
2022/05/10 20:18:10;;;;;;;;;;;;;;;;;;8402988;28;27365;-66
2022/05/10 20:22:10;;;;;;;;;;;;;;;;;;8398487;27;27846;-65
2022/05/10 20:26:10;;;;;;;;;;;;;;;;;;8401703;28;46400;-66
2022/05/10 20:30:11;;;;;;;;;;;;;;;;;;8397215;28;27780;-66
2022/05/10 20:34:11;;;;;;;;;;;;;;;;;;8402904;27;27158;-65
2022/05/10 20:38:11;;;;;;;;;;;;;;;;;;8397947;28;27965;-66
2022/05/10 20:42:11;;;;;;;;;;;;;;;;;;8399593;28;28350;-66
2022/05/10 20:46:11;;;;;;;;;;;;;;;;;;8402456;27;27757;-66
2022/05/10 20:50:12;;;;;;;;;;;;;;;;;;8398214;28;27716;-65
2022/05/10 20:54:12;;;;;;;;;;;;;;;;;;8398555;27;27672;-66
2022/05/10 20:58:14;;;;;;;;;;;;;;;;;;8403741;28;28668;-66
2022/05/10 21:02:14;;;;;;;;;;;;;;;;;;8394993;28;28276;-65
2022/05/10 21:06:15;;;;;;;;;;;;;;;;;;8400914;27;27391;-65
2022/05/10 21:10:15;;;;;;;;;;;;;;;;;;8401638;27;27835;-66
2022/05/10 21:14:15;;;;;;;;;;;;;;;;;;8399105;28;27447;-65
2022/05/10 21:18:15;;;;;;;;;;;;;;;;;;8393604;28;27534;-66
2022/05/10 21:22:15;;;;;;;;;;;;;;;;;;8394029;27;27542;-66
2022/05/10 21:26:15;;;;;;;;;;;;;;;;;;8400919;27;28928;-65
2022/05/10 21:34:35;;;;;;;;;;;;;;;;;;8409733;28;28585;-66
2022/05/10 21:38:35;;;;;;;;;;;;;;;;;;8403753;27;28430;-66
2022/05/10 21:42:35;;;;;;;;;;;;;;;;;;8405295;27;27570;-66
2022/05/10 21:46:35;;;;;;;;;;;;;;;;;;8408582;27;27819;-66
2022/05/10 21:50:35;;;;;;;;;;;;;;;;;;8405475;27;27345;-66
2022/05/10 21:54:35;;;;;;;;;;;;;;;;;;8407297;28;27581;-65
2022/05/10 21:58:35;;;;;;;;;;;;;;;;;;8404134;27;27671;-66
2022/05/10 22:02:36;;;;;;;;;;;;;;;;;;8398984;27;27538;-66
2022/05/10 22:06:36;;;;;;;;;;;;;;;;;;8406215;27;27675;-66
2022/05/10 22:10:37;;;;;;;;;;;;;;;;;;8404940;28;27682;-65
2022/05/10 22:14:37;;;;;;;;;;;;;;;;;;8409899;27;27440;-65
2022/05/10 22:18:37;;;;;;;;;;;;;;;;;;8407169;28;27263;-65
2022/05/10 22:22:37;;;;;;;;;;;;;;;;;;8403370;27;28212;-65
2022/05/10 22:26:38;;;;;;;;;;;;;;;;;;8407336;27;28157;-65
2022/05/10 22:30:38;;;;;;;;;;;;;;;;;;8403523;28;27865;-65
2022/05/10 22:34:38;;;;;;;;;;;;;;;;;;8405575;27;27841;-66
2022/05/10 22:38:38;;;;;;;;;;;;;;;;;;8407348;27;27580;-65
2022/05/10 22:42:39;;;;;;;;;;;;;;;;;;8404435;27;27534;-65
2022/05/10 22:46:39;;;;;;;;;;;;;;;;;;8404786;27;27453;-66
2022/05/10 22:50:39;;;;;;;;;;;;;;;;;;8403203;28;27343;-66
2022/05/10 22:54:39;;;;;;;;;;;;;;;;;;8402809;27;27856;-66
2022/05/10 22:58:40;;;;;;;;;;;;;;;;;;8405433;27;27785;-66
2022/05/10 23:02:40;;;;;;;;;;;;;;;;;;8399580;27;27255;-66
2022/05/10 23:06:43;;;;;;;;;;;;;;;;;;8404097;27;27621;-65
2022/05/10 23:10:43;;;;;;;;;;;;;;;;;;8401314;28;27276;-66
2022/05/10 23:14:44;;;;;;;;;;;;;;;;;;8403039;28;28897;-65
2022/05/10 23:18:44;;;;;;;;;;;;;;;;;;8403035;27;27272;-65
2022/05/10 23:22:44;;;;;;;;;;;;;;;;;;8403424;27;27807;-66
2022/05/10 23:26:44;;;;;;;;;;;;;;;;;;8404714;27;28850;-65
2022/05/10 23:30:44;;;;;;;;;;;;;;;;;;8396875;28;28135;-65
2022/05/10 23:34:45;;;;;;;;;;;;;;;;;;8399505;27;28082;-65
2022/05/10 23:38:45;;;;;;;;;;;;;;;;;;8402100;28;28268;-65
2022/05/10 23:47:04;;;;;;;;;;;;;;;;;;8398437;28;28080;-65
2022/05/10 23:51:04;;;;;;;;;;;;;;;;;;8396056;28;27505;-65
2022/05/10 23:55:04;;;;;;;;;;;;;;;;;;8396572;27;28526;-65
2022/05/10 23:59:04;;;;;;;;;;;;;;;;;;8396671;28;27846;-66
